Time;durP1;ratioP1;P1;durP2;ratioP2;P2;SDS_P1;SDS_P2;PMS_P1;PMS_P2;Temp;Humidity;BMP_temperature;BMP_pressure;BME280_temperature;BME280_humidity;BME280_pressure;Samples;Min_cycle;Max_cycle;Signal;HPM_P1;HPM_P2
2022/04/22 00:00:26;;;;;;;;;;;10.30;99.90;;;;;;4971123;28;19946;-76
2022/04/22 00:02:53;;;;;;;;;;;10.30;99.90;;;;;;4981807;28;19910;-76
2022/04/22 00:05:20;;;;;;;;;;;10.30;99.90;;;;;;4969502;28;20039;-76
2022/04/22 00:07:47;;;;;;;;;;;10.20;99.90;;;;;;4964968;28;20387;-76
2022/04/22 00:10:14;;;;;;;;;;;10.20;99.90;;;;;;4970024;28;19933;-74
2022/04/22 00:12:40;;;;;;;;;;;10.20;99.90;;;;;;4953124;28;20021;-74
2022/04/22 00:15:09;;;;;;;;;;;10.20;99.90;;;;;;4970523;28;20276;-74
2022/04/22 00:17:36;;;;;;;;;;;10.10;99.90;;;;;;4949935;28;19930;-74
2022/04/22 00:20:03;;;;;;;;;;;10.10;99.90;;;;;;4977398;28;19926;-75
2022/04/22 00:22:30;;;;;;;;;;;10.10;99.90;;;;;;4969926;28;19933;-74
2022/04/22 00:24:56;;;;;;;;;;;10.00;99.90;;;;;;4976969;28;19948;-74
2022/04/22 00:27:23;;;;;;;;;;;10.00;99.90;;;;;;4975489;28;19926;-74
2022/04/22 00:29:50;;;;;;;;;;;10.00;99.90;;;;;;4972504;28;19922;-75
2022/04/22 00:32:18;;;;;;;;;;;10.00;99.90;;;;;;4955243;28;19933;-75
2022/04/22 00:34:45;;;;;;;;;;;9.90;99.90;;;;;;4972886;28;19922;-75
2022/04/22 00:37:11;;;;;;;;;;;9.90;99.90;;;;;;4972011;28;19921;-76
2022/04/22 00:39:38;;;;;;;;;;;9.20;99.90;;;;;;4970127;28;19930;-76
2022/04/22 00:42:10;;;;;;;;;;;9.80;99.90;;;;;;4972164;28;19922;-76
2022/04/22 00:44:37;;;;;;;;;;;9.80;99.90;;;;;;4971621;28;19953;-75
2022/04/22 00:47:04;;;;;;;;;;;9.80;99.90;;;;;;4967757;28;19926;-75
2022/04/22 00:49:32;;;;;;;;;;;9.70;99.90;;;;;;4972774;28;19930;-75
2022/04/22 00:51:58;;;;;;;;;;;9.70;99.90;;;;;;4972160;28;19926;-74
2022/04/22 00:54:26;;;;;;;;;;;9.80;99.90;;;;;;4971564;28;19922;-74
2022/04/22 00:56:53;;;;;;;;;;;9.80;99.90;;;;;;4963936;28;20291;-76
2022/04/22 00:59:20;;;;;;;;;;;9.90;99.90;;;;;;4971462;28;20155;-75
2022/04/22 01:01:47;;;;;;;;;;;9.90;99.90;;;;;;4968432;28;20013;-75
2022/04/22 01:09:50;;;;;;;;;;;9.80;99.90;;;;;;4945989;28;20065;-75
2022/04/22 01:12:17;;;;;;;;;;;9.70;99.90;;;;;;4963746;28;20423;-75
2022/04/22 01:14:44;;;;;;;;;;;9.70;99.90;;;;;;4967794;28;19989;-74
2022/04/22 01:17:11;;;;;;;;;;;9.70;99.90;;;;;;4961160;28;20012;-75
2022/04/22 01:19:38;;;;;;;;;;;9.60;99.90;;;;;;4961074;28;19981;-75
2022/04/22 01:22:07;;;;;;;;;;;9.60;99.90;;;;;;4970094;28;19933;-75
2022/04/22 01:24:34;;;;;;;;;;;9.60;99.90;;;;;;4980280;28;20351;-74
2022/04/22 01:27:02;;;;;;;;;;;9.60;99.90;;;;;;4967146;28;19976;-73
2022/04/22 01:29:28;;;;;;;;;;;9.50;99.90;;;;;;4969199;28;19926;-74
2022/04/22 01:31:55;;;;;;;;;;;9.50;99.90;;;;;;4948486;28;19925;-74
2022/04/22 01:34:21;;;;;;;;;;;9.50;99.90;;;;;;4970362;28;19930;-73
2022/04/22 01:36:48;;;;;;;;;;;9.40;99.90;;;;;;4973901;28;19926;-74
2022/04/22 01:39:16;;;;;;;;;;;9.40;99.90;;;;;;4969336;28;19926;-74
2022/04/22 01:41:43;;;;;;;;;;;9.30;99.90;;;;;;4971965;28;19933;-74
2022/04/22 01:44:09;;;;;;;;;;;9.40;99.90;;;;;;4971665;28;19949;-74
2022/04/22 01:46:36;;;;;;;;;;;9.30;99.90;;;;;;4967614;28;20225;-74
2022/04/22 01:49:03;;;;;;;;;;;9.30;99.90;;;;;;4971098;28;20378;-75
2022/04/22 01:51:30;;;;;;;;;;;9.20;99.90;;;;;;4970949;28;20497;-74
2022/04/22 01:53:56;;;;;;;;;;;9.20;99.90;;;;;;4970033;28;20288;-74
2022/04/22 01:56:24;;;;;;;;;;;9.20;99.90;;;;;;4965550;28;19925;-75
2022/04/22 01:58:51;;;;;;;;;;;9.20;99.90;;;;;;4970492;28;19932;-73
2022/04/22 02:01:18;;;;;;;;;;;9.10;99.90;;;;;;4965404;28;20332;-74
2022/04/22 02:03:44;;;;;;;;;;;9.10;99.90;;;;;;4963160;28;19946;-73
2022/04/22 02:06:11;;;;;;;;;;;9.10;99.90;;;;;;4956365;28;19984;-73
2022/04/22 02:08:38;;;;;;;;;;;9.00;99.90;;;;;;4964525;28;19926;-73
2022/04/22 02:11:04;;;;;;;;;;;9.00;99.90;;;;;;4963695;28;19922;-74
2022/04/22 02:13:36;;;;;;;;;;;8.90;99.90;;;;;;4968725;28;19922;-74
2022/04/22 02:16:04;;;;;;;;;;;8.90;99.90;;;;;;4960132;28;20283;-74
2022/04/22 02:18:31;;;;;;;;;;;8.90;99.90;;;;;;4952170;28;19925;-74
2022/04/22 02:20:57;;;;;;;;;;;8.90;99.90;;;;;;4957628;28;19922;-74
2022/04/22 02:23:24;;;;;;;;;;;8.90;99.90;;;;;;4967205;28;19933;-72
2022/04/22 02:25:51;;;;;;;;;;;8.90;99.90;;;;;;4962545;28;20216;-73
2022/04/22 02:28:32;;;;;;;;;;;8.80;99.90;;;;;;4951924;28;19949;-73
2022/04/22 02:31:00;;;;;;;;;;;8.80;99.90;;;;;;4963902;28;19926;-73
2022/04/22 02:33:27;;;;;;;;;;;8.80;99.90;;;;;;4959687;28;19993;-73
2022/04/22 02:35:54;;;;;;;;;;;8.80;99.90;;;;;;4964645;28;20359;-73
2022/04/22 02:38:21;;;;;;;;;;;8.70;99.90;;;;;;4969957;28;19926;-73
2022/04/22 02:46:17;;;;;;;;;;;8.70;99.90;;;;;;4967052;28;19965;-73
2022/04/22 02:48:44;;;;;;;;;;;8.70;99.90;;;;;;4968272;28;19978;-73
2022/04/22 02:51:11;;;;;;;;;;;8.70;99.90;;;;;;4963972;28;19926;-73
2022/04/22 02:53:37;;;;;;;;;;;8.70;99.90;;;;;;4965553;28;19922;-73
2022/04/22 02:56:05;;;;;;;;;;;8.70;99.90;;;;;;4966840;28;20350;-73
2022/04/22 02:58:32;;;;;;;;;;;8.70;99.90;;;;;;4961884;28;20431;-72
2022/04/22 03:00:59;;;;;;;;;;;8.70;99.90;;;;;;4968100;28;19933;-73
2022/04/22 03:03:27;;;;;;;;;;;8.70;99.90;;;;;;4962997;28;19930;-73
2022/04/22 03:05:54;;;;;;;;;;;8.80;99.90;;;;;;4967085;28;20424;-73
2022/04/22 03:08:21;;;;;;;;;;;8.80;99.90;;;;;;4968329;28;20060;-73
2022/04/22 03:10:49;;;;;;;;;;;8.80;99.90;;;;;;4975047;28;20102;-73
2022/04/22 03:13:16;;;;;;;;;;;8.80;99.90;;;;;;4964755;28;20000;-73
2022/04/22 03:15:43;;;;;;;;;;;8.80;99.90;;;;;;4966754;28;20431;-73
2022/04/22 03:18:09;;;;;;;;;;;8.90;99.90;;;;;;4951431;28;19930;-73
2022/04/22 03:20:38;;;;;;;;;;;8.90;99.90;;;;;;4968380;28;19922;-73
2022/04/22 03:23:05;;;;;;;;;;;8.80;99.90;;;;;;4965975;28;19957;-73
2022/04/22 03:25:31;;;;;;;;;;;8.90;99.90;;;;;;4967372;28;20326;-73
2022/04/22 03:27:58;;;;;;;;;;;8.90;99.90;;;;;;4961059;28;19937;-73
2022/04/22 03:30:25;;;;;;;;;;;8.90;99.90;;;;;;4965244;28;19969;-76
2022/04/22 03:32:52;;;;;;;;;;;8.90;99.90;;;;;;4968272;28;19985;-73
2022/04/22 03:35:18;;;;;;;;;;;8.90;99.90;;;;;;4973016;28;19922;-74
2022/04/22 03:37:46;;;;;;;;;;;8.90;99.90;;;;;;4958445;28;19933;-74
2022/04/22 03:40:13;;;;;;;;;;;8.90;99.90;;;;;;4969283;28;20039;-74
2022/04/22 03:42:41;;;;;;;;;;;8.90;99.90;;;;;;4952365;28;20295;-74
2022/04/22 03:45:08;;;;;;;;;;;8.90;99.90;;;;;;4970928;28;20314;-75
2022/04/22 03:47:34;;;;;;;;;;;8.90;99.90;;;;;;4970103;28;19922;-74
2022/04/22 03:50:01;;;;;;;;;;;8.80;99.90;;;;;;4965285;28;19933;-74
2022/04/22 03:52:28;;;;;;;;;;;8.80;99.90;;;;;;4969645;28;20399;-75
2022/04/22 03:54:56;;;;;;;;;;;8.80;99.90;;;;;;4969274;28;19926;-74
2022/04/22 04:00:08;;;;;;;;;;;8.70;99.90;;;;;;4972504;28;20355;-74
2022/04/22 04:02:35;;;;;;;;;;;8.70;99.90;;;;;;4977580;28;19922;-75
2022/04/22 04:05:02;;;;;;;;;;;8.70;99.90;;;;;;4977819;28;19937;-74
2022/04/22 04:07:29;;;;;;;;;;;8.70;99.90;;;;;;4970690;28;19922;-74
2022/04/22 04:18:11;;;;;;;;;;;8.70;99.90;;;;;;4969136;28;20352;-75
2022/04/22 04:23:22;;;;;;;;;;;8.60;99.90;;;;;;4970084;28;19929;-74
2022/04/22 04:25:51;;;;;;;;;;;8.60;99.90;;;;;;4964178;28;19926;-74
2022/04/22 04:28:18;;;;;;;;;;;8.60;99.90;;;;;;4954872;28;19933;-74
2022/04/22 04:30:45;;;;;;;;;;;8.60;99.90;;;;;;4971249;28;19929;-74
2022/04/22 04:33:12;;;;;;;;;;;8.60;99.90;;;;;;4971444;28;19930;-74
2022/04/22 04:35:40;;;;;;;;;;;8.60;99.90;;;;;;4953609;28;20036;-75
2022/04/22 04:38:07;;;;;;;;;;;8.60;99.90;;;;;;4972797;28;19926;-75
2022/04/22 04:40:34;;;;;;;;;;;8.60;99.90;;;;;;4973054;28;19926;-75
2022/04/22 04:43:02;;;;;;;;;;;8.60;99.90;;;;;;4972197;28;19922;-75
2022/04/22 04:45:29;;;;;;;;;;;8.60;99.90;;;;;;4970892;28;20391;-75
2022/04/22 04:47:56;;;;;;;;;;;8.60;99.90;;;;;;4963609;28;19977;-75
2022/04/22 04:50:22;;;;;;;;;;;8.70;99.90;;;;;;4959298;28;19926;-75
2022/04/22 04:52:49;;;;;;;;;;;8.70;99.90;;;;;;4951785;28;20399;-75
2022/04/22 04:55:16;;;;;;;;;;;8.80;99.90;;;;;;4964849;28;19945;-75
2022/04/22 04:57:43;;;;;;;;;;;8.80;99.90;;;;;;4972108;28;20587;-75
2022/04/22 05:00:12;;;;;;;;;;;10.70;99.90;;;;;;4974258;28;19964;-74
2022/04/22 05:02:39;;;;;;;;;;;8.90;99.90;;;;;;4971071;28;19926;-75
2022/04/22 05:05:07;;;;;;;;;;;9.00;99.90;;;;;;4960471;28;19929;-75
2022/04/22 05:07:34;;;;;;;;;;;9.00;99.90;;;;;;4970544;28;20017;-75
2022/04/22 05:10:01;;;;;;;;;;;9.10;99.90;;;;;;4962819;28;20222;-75
2022/04/22 05:12:28;;;;;;;;;;;9.20;99.90;;;;;;4971399;28;19922;-75
2022/04/22 05:14:56;;;;;;;;;;;9.20;99.90;;;;;;4968227;28;19926;-75
2022/04/22 05:17:24;;;;;;;;;;;9.30;99.90;;;;;;4966912;28;20005;-75
2022/04/22 05:19:50;;;;;;;;;;;9.40;99.90;;;;;;4966322;28;19922;-75
2022/04/22 05:22:17;;;;;;;;;;;9.50;99.90;;;;;;4961257;28;19972;-75
2022/04/22 05:24:44;;;;;;;;;;;9.70;99.90;;;;;;5036896;22;19920;-73
2022/04/22 05:27:11;;;;;;;;;;;9.80;99.90;;;;;;5048469;28;20449;-74
2022/04/22 05:32:39;;;;;;;;;;;10.00;99.90;;;;;;5020678;28;19916;-74
2022/04/22 05:35:08;;;;;;;;;;;10.30;99.90;;;;;;5048371;28;19925;-73
2022/04/22 05:37:45;;;;;;;;;;;10.70;99.90;;;;;;5046573;28;20040;-73
2022/04/22 05:40:13;;;;;;;;;;;11.60;99.90;;;;;;5042802;28;19936;-74
2022/04/22 05:42:40;;;;;;;;;;;12.50;99.90;;;;;;5043974;28;20461;-75
2022/04/22 05:45:07;;;;;;;;;;;13.30;99.90;;;;;;5042899;28;19921;-75
2022/04/22 05:47:34;;;;;;;;;;;14.10;99.90;;;;;;5046143;28;19982;-75
2022/04/22 05:50:01;;;;;;;;;;;16.30;99.90;;;;;;5047740;28;19924;-75
2022/04/22 05:52:29;;;;;;;;;;;16.50;99.90;;;;;;5050338;28;19929;-76
2022/04/22 05:54:58;;;;;;;;;;;16.80;99.90;;;;;;5044223;28;19971;-76
2022/04/22 05:57:24;;;;;;;;;;;17.50;99.90;;;;;;5049236;28;19968;-75
2022/04/22 05:59:51;;;;;;;;;;;17.10;99.90;;;;;;5050767;28;20019;-75
2022/04/22 06:02:18;;;;;;;;;;;16.50;99.90;;;;;;5037576;28;19987;-75
2022/04/22 06:04:46;;;;;;;;;;;15.70;99.90;;;;;;5042956;28;20055;-75
2022/04/22 06:07:13;;;;;;;;;;;14.90;99.90;;;;;;5041967;28;19936;-75
2022/04/22 06:12:25;;;;;;;;;;;13.20;99.90;;;;;;5050137;28;19925;-75
2022/04/22 06:14:53;;;;;;;;;;;12.70;99.90;;;;;;5050241;28;20363;-75
2022/04/22 06:17:19;;;;;;;;;;;12.40;99.90;;;;;;5041207;28;19920;-75
2022/04/22 06:19:46;;;;;;;;;;;12.10;99.90;;;;;;5045415;28;19971;-75
2022/04/22 06:22:13;;;;;;;;;;;11.90;99.90;;;;;;5046298;28;20480;-74
2022/04/22 06:24:41;;;;;;;;;;;11.80;99.90;;;;;;5041294;28;19927;-74
2022/04/22 06:27:09;;;;;;;;;;;11.80;99.90;;;;;;5039675;28;19928;-76
2022/04/22 06:29:36;;;;;;;;;;;11.80;99.90;;;;;;5040348;28;19921;-76
2022/04/22 06:32:03;;;;;;;;;;;11.80;99.90;;;;;;5045295;28;19924;-75
2022/04/22 06:34:30;;;;;;;;;;;11.80;99.90;;;;;;5044757;28;19990;-75
2022/04/22 06:36:57;;;;;;;;;;;11.90;99.90;;;;;;5048293;28;19932;-74
2022/04/22 06:39:24;;;;;;;;;;;11.80;99.90;;;;;;5042022;28;19924;-74
2022/04/22 06:47:22;;;;;;;;;;;12.00;99.90;;;;;;5021256;28;20302;-76
2022/04/22 06:49:48;;;;;;;;;;;12.10;99.90;;;;;;5047724;28;19967;-74
2022/04/22 06:52:15;;;;;;;;;;;12.20;99.90;;;;;;5044099;28;19931;-75
2022/04/22 06:54:43;;;;;;;;;;;10.70;99.90;;;;;;5041083;28;19937;-76
2022/04/22 06:57:12;;;;;;;;;;;12.40;99.90;;;;;;5044974;28;19990;-76
2022/04/22 06:59:39;;;;;;;;;;;12.60;99.90;;;;;;5047780;28;20412;-74
2022/04/22 07:02:06;;;;;;;;;;;12.80;99.90;;;;;;5045006;28;20016;-74
2022/04/22 07:04:34;;;;;;;;;;;12.90;99.90;;;;;;5043398;28;20451;-74
2022/04/22 07:07:03;;;;;;;;;;;13.10;99.90;;;;;;5047159;28;20099;-75
2022/04/22 07:09:30;;;;;;;;;;;13.40;99.90;;;;;;5055305;28;19916;-74
2022/04/22 07:11:57;;;;;;;;;;;13.70;99.90;;;;;;5059597;28;19932;-75
2022/04/22 07:14:26;;;;;;;;;;;12.70;99.90;;;;;;5047136;28;20045;-74
2022/04/22 07:16:53;;;;;;;;;;;14.30;99.90;;;;;;5042363;28;19936;-75
2022/04/22 07:19:20;;;;;;;;;;;15.80;99.90;;;;;;5046145;28;19931;-75
2022/04/22 07:21:48;;;;;;;;;;;16.40;99.90;;;;;;5046190;28;20003;-75
2022/04/22 07:24:15;;;;;;;;;;;16.80;99.90;;;;;;5044490;28;19921;-75
2022/04/22 07:26:44;;;;;;;;;;;16.70;99.90;;;;;;5045067;28;19931;-75
2022/04/22 07:29:13;;;;;;;;;;;16.60;99.90;;;;;;5053717;28;20395;-75
2022/04/22 07:31:41;;;;;;;;;;;16.80;99.90;;;;;;5044229;28;19956;-75
2022/04/22 07:34:09;;;;;;;;;;;17.40;99.90;;;;;;5041084;28;19963;-75
2022/04/22 07:36:37;;;;;;;;;;;17.40;99.90;;;;;;5049329;28;19921;-76
2022/04/22 07:39:03;;;;;;;;;;;17.00;99.90;;;;;;5048281;28;19932;-76
2022/04/22 07:41:32;;;;;;;;;;;17.00;99.90;;;;;;5043498;28;19982;-76
2022/04/22 07:46:48;;;;;;;;;;;16.50;99.90;;;;;;5044800;28;19921;-76
2022/04/22 07:49:15;;;;;;;;;;;16.30;99.90;;;;;;5050691;28;19925;-76
2022/04/22 07:51:42;;;;;;;;;;;16.20;99.90;;;;;;5050505;28;19940;-76
2022/04/22 07:54:09;;;;;;;;;;;16.00;99.90;;;;;;5053428;28;19962;-76
2022/04/22 07:56:36;;;;;;;;;;;16.00;99.90;;;;;;5050403;28;19940;-75
2022/04/22 07:59:02;;;;;;;;;;;16.00;99.90;;;;;;5052490;28;19929;-75
2022/04/22 08:01:29;;;;;;;;;;;17.60;99.90;;;;;;5046037;28;19921;-75
2022/04/22 08:03:59;;;;;;;;;;;15.60;99.90;;;;;;5051317;28;19935;-74
2022/04/22 08:06:25;;;;;;;;;;;15.40;99.90;;;;;;5047198;28;19921;-74
2022/04/22 08:08:52;;;;;;;;;;;15.40;99.90;;;;;;5043384;28;19933;-75
2022/04/22 08:11:20;;;;;;;;;;;15.70;99.90;;;;;;5056249;28;19982;-75
2022/04/22 08:13:46;;;;;;;;;;;16.30;99.90;;;;;;5049887;28;19970;-73
2022/04/22 08:16:13;;;;;;;;;;;16.20;99.90;;;;;;5051993;28;19936;-73
2022/04/22 08:18:40;;;;;;;;;;;16.00;99.90;;;;;;5046353;28;19959;-73
2022/04/22 08:21:10;;;;;;;;;;;15.80;99.90;;;;;;5044781;28;20324;-73
2022/04/22 08:23:37;;;;;;;;;;;15.50;99.90;;;;;;5049733;28;19924;-73
2022/04/22 08:26:04;;;;;;;;;;;15.40;99.90;;;;;;5051432;28;20016;-73
2022/04/22 08:28:31;;;;;;;;;;;15.70;99.90;;;;;;5050903;28;20015;-73
2022/04/22 08:30:58;;;;;;;;;;;17.40;99.90;;;;;;5049047;28;19921;-74
2022/04/22 08:33:26;;;;;;;;;;;16.20;99.90;;;;;;5052385;28;20349;-73
2022/04/22 08:35:52;;;;;;;;;;;17.40;99.90;;;;;;5052937;28;19929;-75
2022/04/22 08:38:20;;;;;;;;;;;17.50;99.90;;;;;;5056465;28;19924;-75
2022/04/22 08:40:49;;;;;;;;;;;18.40;99.90;;;;;;5051435;28;20377;-75
2022/04/22 08:43:16;;;;;;;;;;;18.70;99.90;;;;;;5053712;28;19929;-75
2022/04/22 08:45:43;;;;;;;;;;;17.80;99.90;;;;;;5052986;28;19936;-74
2022/04/22 08:50:55;;;;;;;;;;;17.40;99.90;;;;;;5050850;28;20247;-75
2022/04/22 08:53:25;;;;;;;;;;;17.20;99.90;;;;;;5042611;28;20019;-74
2022/04/22 08:55:56;;;;;;;;;;;16.80;99.90;;;;;;5042625;28;19954;-74
2022/04/22 08:58:24;;;;;;;;;;;18.00;99.90;;;;;;5045694;28;19947;-74
2022/04/22 09:00:53;;;;;;;;;;;18.00;99.90;;;;;;5052742;28;19989;-74
2022/04/22 09:03:20;;;;;;;;;;;16.50;99.90;;;;;;5056822;28;20035;-74
2022/04/22 09:05:47;;;;;;;;;;;16.40;99.90;;;;;;5052492;28;20266;-75
2022/04/22 09:08:14;;;;;;;;;;;16.40;99.90;;;;;;5050304;28;19924;-74
2022/04/22 09:10:42;;;;;;;;;;;16.80;99.90;;;;;;5057114;28;20463;-74
2022/04/22 09:13:10;;;;;;;;;;;17.00;99.90;;;;;;5074270;28;19925;-74
2022/04/22 09:15:38;;;;;;;;;;;17.00;99.90;;;;;;5063825;28;20092;-74
2022/04/22 09:18:12;;;;;;;;;;;17.00;99.90;;;;;;5060484;28;19931;-74
2022/04/22 09:20:39;;;;;;;;;;;17.00;99.90;;;;;;5062086;28;19939;-74
2022/04/22 09:23:21;;;;;;;;;;;17.00;99.90;;;;;;5055621;28;20286;-73
2022/04/22 09:25:49;;;;;;;;;;;17.10;99.90;;;;;;5047702;28;19947;-75
2022/04/22 09:28:16;;;;;;;;;;;17.20;99.90;;;;;;5050305;28;20468;-73
2022/04/22 09:30:42;;;;;;;;;;;17.10;99.90;;;;;;5050755;28;19931;-74
2022/04/22 09:33:10;;;;;;;;;;;17.20;99.90;;;;;;5035420;28;20410;-74
2022/04/22 09:42:38;;;;;;;;;;;17.20;99.90;;;;;;5045586;28;19921;-73
2022/04/22 09:43:55;;;;;;;;;;;16.80;99.90;;;;;;5046739;28;20007;-74
2022/04/22 09:46:22;;;;;;;;;;;16.30;99.90;;;;;;5048686;28;19931;-74
2022/04/22 09:48:49;;;;;;;;;;;16.30;99.90;;;;;;5051721;28;19925;-74
2022/04/22 09:51:24;;;;;;;;;;;16.30;99.90;;;;;;5054027;28;20015;-74
2022/04/22 09:53:59;;;;;;;;;;;16.40;99.90;;;;;;5049059;28;19970;-74
2022/04/22 09:56:27;;;;;;;;;;;16.60;99.90;;;;;;5045827;28;20106;-74
2022/04/22 09:58:55;;;;;;;;;;;16.70;99.90;;;;;;5047791;28;19954;-76
2022/04/22 10:01:24;;;;;;;;;;;17.90;99.90;;;;;;5042485;28;19925;-76
2022/04/22 10:03:51;;;;;;;;;;;17.20;99.90;;;;;;5029870;28;20032;-76
2022/04/22 10:06:18;;;;;;;;;;;17.50;99.90;;;;;;5034818;28;19932;-74
2022/04/22 10:08:46;;;;;;;;;;;17.70;99.90;;;;;;5050319;28;20352;-75
2022/04/22 10:11:15;;;;;;;;;;;18.00;99.90;;;;;;5050948;28;19924;-74
2022/04/22 10:13:44;;;;;;;;;;;17.90;99.90;;;;;;5050358;28;19939;-74
2022/04/22 10:16:11;;;;;;;;;;;18.40;99.90;;;;;;5046718;28;20007;-74
2022/04/22 10:18:38;;;;;;;;;;;17.70;99.90;;;;;;5049356;28;19931;-74
2022/04/22 10:21:05;;;;;;;;;;;17.60;99.90;;;;;;5044612;28;20256;-74
2022/04/22 10:23:32;;;;;;;;;;;17.50;99.90;;;;;;5046608;28;20311;-75
2022/04/22 10:25:59;;;;;;;;;;;17.60;99.90;;;;;;5045787;28;20073;-75
2022/04/22 10:28:27;;;;;;;;;;;17.90;99.90;;;;;;5038178;28;19929;-75
2022/04/22 10:31:00;;;;;;;;;;;18.30;99.90;;;;;;5043770;28;20007;-75
2022/04/22 10:33:27;;;;;;;;;;;18.60;99.90;;;;;;5039005;28;20003;-75
2022/04/22 10:35:57;;;;;;;;;;;18.80;99.90;;;;;;5073253;28;19929;-75
2022/04/22 10:38:28;;;;;;;;;;;18.80;99.90;;;;;;5049418;28;19928;-75
2022/04/22 10:40:55;;;;;;;;;;;18.70;99.90;;;;;;5038950;28;19929;-75
2022/04/22 10:43:22;;;;;;;;;;;18.70;99.90;;;;;;5046155;28;19939;-75
2022/04/22 10:48:39;;;;;;;;;;;18.60;99.90;;;;;;5047040;28;19916;-76
2022/04/22 10:51:08;;;;;;;;;;;18.90;99.90;;;;;;5042314;28;19992;-76
2022/04/22 10:53:46;;;;;;;;;;;20.10;99.90;;;;;;5040899;28;20511;-76
2022/04/22 10:56:33;;;;;;;;;;;19.70;99.90;;;;;;5048250;28;19925;-75
2022/04/22 10:59:20;;;;;;;;;;;19.80;99.90;;;;;;5045699;28;19924;-75
2022/04/22 11:01:47;;;;;;;;;;;19.70;98.80;;;;;;5055955;28;20019;-75
2022/04/22 11:04:19;;;;;;;;;;;19.50;98.80;;;;;;5050390;28;19951;-75
2022/04/22 11:06:46;;;;;;;;;;;19.40;99.10;;;;;;5036609;28;19948;-75
2022/04/22 11:09:24;;;;;;;;;;;19.30;98.90;;;;;;5043888;28;19985;-73
2022/04/22 11:11:50;;;;;;;;;;;19.20;99.00;;;;;;5042289;28;20298;-73
2022/04/22 11:14:18;;;;;;;;;;;19.20;98.30;;;;;;5047346;28;19924;-73
2022/04/22 11:16:44;;;;;;;;;;;19.10;98.30;;;;;;5056836;28;19935;-74
2022/04/22 11:19:36;;;;;;;;;;;19.40;98.80;;;;;;5044828;28;20038;-74
2022/04/22 11:22:07;;;;;;;;;;;19.30;98.50;;;;;;5045250;28;20231;-76
2022/04/22 11:24:34;;;;;;;;;;;19.50;97.70;;;;;;5038344;28;19932;-76
2022/04/22 11:27:04;;;;;;;;;;;19.60;98.00;;;;;;5039914;28;20023;-76
2022/04/22 11:29:31;;;;;;;;;;;19.70;97.70;;;;;;5044446;28;19955;-76
2022/04/22 11:32:03;;;;;;;;;;;19.80;97.90;;;;;;5036269;28;19924;-76
2022/04/22 11:34:45;;;;;;;;;;;19.80;97.70;;;;;;5039896;28;19920;-76
2022/04/22 11:37:18;;;;;;;;;;;19.70;97.40;;;;;;5044939;28;19925;-76
2022/04/22 11:39:46;;;;;;;;;;;19.60;96.60;;;;;;5039335;28;20347;-76
2022/04/22 11:42:13;;;;;;;;;;;19.30;96.70;;;;;;5042982;28;19924;-76
2022/04/22 11:44:40;;;;;;;;;;;20.00;97.40;;;;;;5043167;28;19920;-74
2022/04/22 11:47:07;;;;;;;;;;;19.20;97.90;;;;;;5037958;28;20301;-74
2022/04/22 11:49:35;;;;;;;;;;;19.10;97.70;;;;;;5043781;28;20264;-74
2022/04/22 11:52:02;;;;;;;;;;;19.10;97.90;;;;;;5046659;28;19920;-74
2022/04/22 11:54:30;;;;;;;;;;;19.00;97.50;;;;;;5045584;28;20038;-74
2022/04/22 11:56:57;;;;;;;;;;;18.80;97.80;;;;;;5045014;28;20035;-73
2022/04/22 11:59:24;;;;;;;;;;;20.60;98.90;;;;;;5057821;28;20464;-74
2022/04/22 12:10:11;;;;;;;;;;;19.10;98.10;;;;;;5049716;28;19939;-76
2022/04/22 12:12:46;;;;;;;;;;;19.10;98.20;;;;;;5041025;28;21702;-76
2022/04/22 12:15:13;;;;;;;;;;;19.20;98.20;;;;;;5043949;28;19951;-76
2022/04/22 12:17:40;;;;;;;;;;;19.70;97.70;;;;;;5038269;28;19932;-76
2022/04/22 12:20:08;;;;;;;;;;;19.10;97.30;;;;;;5044837;28;19974;-76
2022/04/22 12:22:35;;;;;;;;;;;19.10;97.10;;;;;;5051418;28;19929;-76
2022/04/22 12:25:11;;;;;;;;;;;18.90;97.00;;;;;;5049694;28;20023;-76
2022/04/22 12:27:38;;;;;;;;;;;18.70;97.10;;;;;;5047899;28;19924;-76
2022/04/22 12:30:05;;;;;;;;;;;19.00;97.90;;;;;;5051357;28;19943;-76
2022/04/22 12:32:32;;;;;;;;;;;19.00;97.50;;;;;;5036180;28;19929;-76
2022/04/22 12:35:15;;;;;;;;;;;19.20;97.70;;;;;;5050484;28;19928;-76
2022/04/22 12:37:46;;;;;;;;;;;19.50;97.70;;;;;;5047576;28;20303;-76
2022/04/22 12:40:15;;;;;;;;;;;19.80;97.50;;;;;;5037023;28;19921;-75
2022/04/22 12:42:42;;;;;;;;;;;19.90;97.20;;;;;;5051272;28;20046;-76
2022/04/22 12:53:27;;;;;;;;;;;19.90;97.10;;;;;;5041099;28;19988;-75
2022/04/22 12:56:02;;;;;;;;;;;19.10;96.60;;;;;;5051297;28;20075;-75
2022/04/22 12:58:29;;;;;;;;;;;19.00;96.90;;;;;;5049670;28;20000;-73
2022/04/22 13:00:55;;;;;;;;;;;18.70;97.50;;;;;;5041533;28;19924;-74
2022/04/22 13:03:22;;;;;;;;;;;18.50;97.70;;;;;;5050991;28;20660;-73
2022/04/22 13:05:49;;;;;;;;;;;18.20;97.80;;;;;;5052899;28;19991;-74
2022/04/22 13:08:17;;;;;;;;;;;18.20;98.10;;;;;;5064452;28;20434;-73
2022/04/22 13:10:44;;;;;;;;;;;18.50;98.60;;;;;;5067862;28;19925;-74
2022/04/22 13:13:14;;;;;;;;;;;18.60;98.00;;;;;;5056412;28;19925;-73
2022/04/22 13:15:41;;;;;;;;;;;19.40;98.10;;;;;;5052437;28;19971;-73
2022/04/22 13:18:08;;;;;;;;;;;18.40;97.90;;;;;;5060606;28;20386;-73
2022/04/22 13:20:34;;;;;;;;;;;18.50;97.80;;;;;;5057781;28;19921;-73
2022/04/22 13:23:01;;;;;;;;;;;18.50;98.00;;;;;;5052518;28;20208;-72
2022/04/22 13:25:28;;;;;;;;;;;18.60;98.10;;;;;;5048568;28;19924;-73
2022/04/22 13:27:55;;;;;;;;;;;18.70;98.10;;;;;;5053935;28;20449;-73
2022/04/22 13:30:24;;;;;;;;;;;19.00;98.00;;;;;;5053513;28;19927;-74
2022/04/22 13:32:51;;;;;;;;;;;19.10;97.40;;;;;;5044632;28;19925;-74
2022/04/22 13:35:20;;;;;;;;;;;19.20;97.30;;;;;;5045952;28;20027;-74
2022/04/22 13:37:47;;;;;;;;;;;19.30;97.40;;;;;;5063129;28;20301;-74
2022/04/22 13:40:14;;;;;;;;;;;19.40;96.90;;;;;;5041855;28;19929;-75
2022/04/22 13:42:41;;;;;;;;;;;19.40;96.30;;;;;;5045075;28;19932;-73
2022/04/22 13:53:21;;;;;;;;;;;19.40;96.00;;;;;;5048242;28;19927;-73
2022/04/22 13:55:48;;;;;;;;;;;19.30;95.70;;;;;;5043328;28;19928;-73
2022/04/22 13:58:15;;;;;;;;;;;19.40;96.00;;;;;;5047718;28;19924;-75
2022/04/22 14:00:41;;;;;;;;;;;19.30;96.30;;;;;;5053374;28;20120;-74
2022/04/22 14:03:09;;;;;;;;;;;19.50;96.10;;;;;;5048920;28;19924;-74
2022/04/22 14:05:36;;;;;;;;;;;19.50;96.10;;;;;;5043305;28;20393;-74
2022/04/22 14:08:03;;;;;;;;;;;19.50;96.10;;;;;;5048375;28;19920;-74
2022/04/22 14:10:30;;;;;;;;;;;19.30;96.00;;;;;;5048183;28;19929;-74
2022/04/22 14:12:57;;;;;;;;;;;19.10;96.10;;;;;;5045435;28;19978;-74
2022/04/22 14:15:25;;;;;;;;;;;18.80;95.90;;;;;;5048779;28;19932;-74
2022/04/22 14:17:52;;;;;;;;;;;18.70;96.20;;;;;;5050900;28;19941;-76
2022/04/22 14:20:20;;;;;;;;;;;18.70;95.10;;;;;;5044492;28;19925;-76
2022/04/22 14:22:47;;;;;;;;;;;18.50;95.10;;;;;;5048884;28;19978;-76
2022/04/22 14:25:13;;;;;;;;;;;18.40;95.10;;;;;;5044713;28;19943;-76
2022/04/22 14:27:40;;;;;;;;;;;18.30;95.20;;;;;;5057050;28;19959;-75
2022/04/22 14:30:07;;;;;;;;;;;18.30;95.40;;;;;;5056536;28;19924;-76
2022/04/22 14:32:34;;;;;;;;;;;18.40;95.30;;;;;;5053975;28;20298;-76
2022/04/22 14:35:01;;;;;;;;;;;18.40;95.20;;;;;;5042627;28;19924;-75
2022/04/22 14:37:29;;;;;;;;;;;18.50;95.60;;;;;;5047896;28;20007;-76
2022/04/22 14:39:56;;;;;;;;;;;18.70;95.20;;;;;;5042056;28;20546;-76
2022/04/22 14:42:23;;;;;;;;;;;18.70;95.80;;;;;;5045119;28;19921;-76
2022/04/22 14:44:49;;;;;;;;;;;18.70;95.00;;;;;;5046660;28;20256;-76
2022/04/22 14:47:16;;;;;;;;;;;18.60;95.10;;;;;;5053044;28;19929;-75
2022/04/22 14:49:43;;;;;;;;;;;18.40;95.40;;;;;;5042429;28;20401;-76
2022/04/22 14:52:09;;;;;;;;;;;18.30;95.30;;;;;;5046464;28;19927;-76
2022/04/22 14:54:38;;;;;;;;;;;19.80;96.40;;;;;;5045058;28;20023;-75
2022/04/22 14:57:05;;;;;;;;;;;18.30;95.70;;;;;;5043948;28;19933;-75
2022/04/22 14:59:32;;;;;;;;;;;18.40;95.20;;;;;;5052596;28;19950;-75
2022/04/22 15:01:59;;;;;;;;;;;18.40;95.40;;;;;;5035425;28;20380;-75
2022/04/22 15:04:26;;;;;;;;;;;19.60;96.00;;;;;;5043838;28;20124;-75
2022/04/22 15:06:52;;;;;;;;;;;18.30;95.80;;;;;;5041658;28;20006;-75
2022/04/22 15:09:20;;;;;;;;;;;18.30;95.80;;;;;;5046447;28;19920;-75
2022/04/22 15:11:48;;;;;;;;;;;18.30;95.50;;;;;;5045468;28;20011;-76
2022/04/22 15:14:15;;;;;;;;;;;18.20;95.60;;;;;;5048405;28;19924;-76
2022/04/22 15:16:42;;;;;;;;;;;18.10;95.80;;;;;;5053821;28;19927;-76
2022/04/22 15:24:37;;;;;;;;;;;18.00;96.30;;;;;;5038337;28;19952;-76
2022/04/22 15:27:05;;;;;;;;;;;18.00;96.30;;;;;;5051710;28;19927;-76
2022/04/22 15:29:32;;;;;;;;;;;18.00;96.30;;;;;;5046066;28;19975;-76
2022/04/22 15:31:59;;;;;;;;;;;18.00;96.40;;;;;;5046574;28;19978;-76
2022/04/22 15:34:26;;;;;;;;;;;17.90;96.00;;;;;;5042494;28;19979;-76
2022/04/22 15:36:54;;;;;;;;;;;17.90;96.30;;;;;;5042703;28;19935;-76
2022/04/22 15:39:21;;;;;;;;;;;17.90;96.30;;;;;;5035340;28;19944;-76
2022/04/22 15:41:48;;;;;;;;;;;17.90;96.20;;;;;;5041402;28;19929;-76
2022/04/22 15:44:23;;;;;;;;;;;17.90;96.20;;;;;;5048100;28;19921;-76